Time;durP1;ratioP1;P1;durP2;ratioP2;P2;SDS_P1;SDS_P2;PMS_P1;PMS_P2;Temp;Humidity;BMP_temperature;BMP_pressure;BME280_temperature;BME280_humidity;BME280_pressure;Samples;Min_cycle;Max_cycle;Signal;HPM_P1;HPM_P2
2024/03/16 00:01:27;;;;;;;;;;;;;;;6.51;66.66;94771.91;4197043;28;19920;-70
2024/03/16 00:03:28;;;;;;;;;;;;;;;6.51;66.58;94772.72;4208680;28;19973;-71
2024/03/16 00:05:30;;;;;;;;;;;;;;;6.43;66.62;94767.38;4202954;28;20015;-71
2024/03/16 00:07:32;;;;;;;;;;;;;;;6.38;67.12;94768.72;4211179;28;19946;-69
2024/03/16 00:09:34;;;;;;;;;;;;;;;6.42;67.31;94765.72;4211710;28;20397;-69
2024/03/16 00:11:36;;;;;;;;;;;;;;;6.50;67.17;94767.69;4206389;28;20007;-70
2024/03/16 00:13:37;;;;;;;;;;;;;;;6.66;66.87;94767.16;4208213;28;20400;-70
2024/03/16 00:15:39;;;;;;;;;;;;;;;6.77;67.16;94767.03;4205500;28;19991;-70
2024/03/16 00:17:41;;;;;;;;;;;;;;;6.86;66.71;94771.47;4203318;28;19954;-69
2024/03/16 00:19:45;;;;;;;;;;;;;;;6.94;66.80;94765.56;4214910;28;20000;-68
2024/03/16 00:21:47;;;;;;;;;;;;;;;7.02;66.54;94767.50;4206386;28;19939;-70
2024/03/16 00:23:48;;;;;;;;;;;;;;;7.07;66.44;94758.31;4185943;28;19924;-70
2024/03/16 00:25:50;;;;;;;;;;;;;;;7.09;66.27;94758.19;4201560;28;19926;-71
2024/03/16 00:27:52;;;;;;;;;;;;;;;7.05;66.38;94762.81;4201107;28;19942;-71
2024/03/16 00:29:56;;;;;;;;;;;;;;;7.08;66.66;94761.75;4213621;28;19950;-72
2024/03/16 00:31:57;;;;;;;;;;;;;;;7.06;66.81;94758.47;4198103;28;19924;-70
2024/03/16 00:33:59;;;;;;;;;;;;;;;7.06;66.74;94764.50;4186002;28;19920;-70
2024/03/16 00:36:01;;;;;;;;;;;;;;;7.09;66.80;94763.38;4211474;28;19923;-70
2024/03/16 00:38:03;;;;;;;;;;;;;;;7.11;66.37;94764.06;4210366;28;20255;-69
2024/03/16 00:40:07;;;;;;;;;;;;;;;7.12;66.61;94763.94;4207133;28;19927;-69
2024/03/16 00:42:12;;;;;;;;;;;;;;;7.15;66.40;94761.06;4197732;28;19931;-70
2024/03/16 00:44:14;;;;;;;;;;;;;;;7.18;66.46;94754.75;4203383;28;20010;-70
2024/03/16 00:46:15;;;;;;;;;;;;;;;7.17;66.57;94756.53;4210516;28;19927;-71
2024/03/16 00:48:17;;;;;;;;;;;;;;;7.11;66.75;94756.25;4212689;28;19996;-70
2024/03/16 00:50:19;;;;;;;;;;;;;;;7.14;66.58;94753.38;4193022;28;19931;-71
2024/03/16 00:52:20;;;;;;;;;;;;;;;7.16;66.62;94757.50;4212303;28;19927;-70
2024/03/16 00:54:22;;;;;;;;;;;;;;;7.20;66.90;94752.81;4211606;28;20011;-70
2024/03/16 00:56:24;;;;;;;;;;;;;;;7.20;66.20;94760.66;4199633;28;20458;-70
2024/03/16 00:58:27;;;;;;;;;;;;;;;7.19;66.52;94756.41;4216960;28;19989;-70
2024/03/16 01:00:31;;;;;;;;;;;;;;;7.16;66.61;94754.06;4204038;28;20346;-71
2024/03/16 01:02:33;;;;;;;;;;;;;;;7.15;66.23;94752.44;4205894;28;20035;-70
2024/03/16 01:04:34;;;;;;;;;;;;;;;7.16;66.74;94761.88;4196261;28;20019;-72
2024/03/16 01:06:36;;;;;;;;;;;;;;;7.18;66.46;94752.13;4210249;28;20018;-71
2024/03/16 01:08:38;;;;;;;;;;;;;;;7.16;66.59;94752.31;4208641;28;19920;-70
2024/03/16 01:10:40;;;;;;;;;;;;;;;7.12;66.58;94756.13;4203100;28;19924;-71
2024/03/16 01:12:41;;;;;;;;;;;;;;;7.09;66.27;94752.97;4206294;28;19920;-71
2024/03/16 01:14:43;;;;;;;;;;;;;;;7.04;65.99;94752.56;4210576;28;20315;-70
2024/03/16 01:16:45;;;;;;;;;;;;;;;7.03;67.01;94758.72;4190676;28;20378;-70
2024/03/16 01:18:47;;;;;;;;;;;;;;;7.06;66.47;94750.66;4204901;28;20385;-70
2024/03/16 01:20:49;;;;;;;;;;;;;;;7.05;66.54;94755.00;4202569;28;20346;-69
2024/03/16 01:22:50;;;;;;;;;;;;;;;7.03;66.15;94751.72;4204425;28;20204;-71
2024/03/16 01:24:52;;;;;;;;;;;;;;;7.06;66.25;94758.47;4208761;28;20386;-70
2024/03/16 01:26:54;;;;;;;;;;;;;;;7.06;66.16;94750.66;4203705;28;19942;-72
2024/03/16 01:28:59;;;;;;;;;;;;;;;7.03;66.55;94750.91;4197262;28;19944;-69
2024/03/16 01:31:01;;;;;;;;;;;;;;;7.00;66.81;94753.78;4209791;28;20026;-71
2024/03/16 01:33:03;;;;;;;;;;;;;;;6.88;67.10;94755.69;4209169;28;19928;-70
2024/03/16 01:35:06;;;;;;;;;;;;;;;6.87;67.23;94752.25;4200774;28;19978;-71
2024/03/16 01:37:08;;;;;;;;;;;;;;;6.94;67.03;94745.53;4210768;28;19924;-70
2024/03/16 01:39:12;;;;;;;;;;;;;;;6.95;66.57;94741.19;4195785;28;20025;-70
2024/03/16 01:41:13;;;;;;;;;;;;;;;6.97;66.57;94740.09;4208243;28;19920;-68
2024/03/16 01:43:15;;;;;;;;;;;;;;;6.96;66.32;94738.41;4188802;28;20012;-69
2024/03/16 01:45:17;;;;;;;;;;;;;;;6.97;66.87;94750.50;4192720;28;20057;-68
2024/03/16 01:47:19;;;;;;;;;;;;;;;6.96;66.82;94745.41;4203793;28;20370;-71
2024/03/16 01:49:21;;;;;;;;;;;;;;;6.95;66.91;94742.00;4207807;28;20396;-70
2024/03/16 01:51:23;;;;;;;;;;;;;;;6.95;66.77;94746.38;4200741;28;20282;-69
2024/03/16 01:53:25;;;;;;;;;;;;;;;6.92;66.77;94747.47;4200917;28;20437;-70
2024/03/16 01:55:26;;;;;;;;;;;;;;;6.93;66.61;94746.53;4184527;28;19924;-70
2024/03/16 01:57:28;;;;;;;;;;;;;;;6.95;66.97;94762.84;4209045;28;19970;-71
2024/03/16 01:59:30;;;;;;;;;;;;;;;7.02;67.46;94757.91;4200360;28;20016;-71
2024/03/16 02:01:31;;;;;;;;;;;;;;;7.08;66.95;94756.53;4203931;28;20439;-71
2024/03/16 02:03:33;;;;;;;;;;;;;;;7.06;66.23;94753.25;4204237;28;19928;-71
2024/03/16 02:05:36;;;;;;;;;;;;;;;7.07;66.46;94755.69;4207011;28;19924;-71
2024/03/16 02:07:37;;;;;;;;;;;;;;;7.10;66.55;94750.22;4192833;28;19920;-71
2024/03/16 02:09:39;;;;;;;;;;;;;;;7.09;66.27;94761.59;4220449;28;20030;-70
2024/03/16 02:11:42;;;;;;;;;;;;;;;7.02;66.20;94757.09;4182428;28;19921;-72
2024/03/16 02:13:45;;;;;;;;;;;;;;;6.80;66.46;94755.53;4184323;28;19920;-71
2024/03/16 02:15:46;;;;;;;;;;;;;;;6.70;67.02;94745.94;4203004;28;20445;-70
2024/03/16 02:17:50;;;;;;;;;;;;;;;6.70;67.46;94747.72;4209454;28;20553;-70
2024/03/16 02:19:52;;;;;;;;;;;;;;;6.64;67.31;94756.88;4201789;28;19934;-70
2024/03/16 02:21:54;;;;;;;;;;;;;;;6.64;67.51;94756.88;4207501;28;20395;-70
2024/03/16 02:23:55;;;;;;;;;;;;;;;6.64;67.21;94769.88;4206252;28;19921;-69
2024/03/16 02:25:58;;;;;;;;;;;;;;;6.65;67.12;94755.94;4204003;28;19923;-71
2024/03/16 02:27:59;;;;;;;;;;;;;;;6.72;67.10;94756.22;4198855;28;19920;-72
2024/03/16 02:30:02;;;;;;;;;;;;;;;6.69;67.09;94762.53;4203699;28;20352;-71
2024/03/16 02:32:07;;;;;;;;;;;;;;;6.64;67.16;94771.66;4201492;28;19962;-70
2024/03/16 02:34:09;;;;;;;;;;;;;;;6.47;67.25;94763.53;4206659;28;19920;-70
2024/03/16 02:36:11;;;;;;;;;;;;;;;6.31;68.01;94756.22;4207557;28;19959;-69
2024/03/16 02:38:13;;;;;;;;;;;;;;;6.29;68.37;94755.53;4191130;28;20000;-70
2024/03/16 02:40:15;;;;;;;;;;;;;;;6.24;68.35;94762.09;4178305;28;19920;-69
2024/03/16 02:42:17;;;;;;;;;;;;;;;6.29;68.55;94758.13;4205050;28;19928;-70
2024/03/16 02:44:19;;;;;;;;;;;;;;;6.39;68.49;94754.75;4204523;28;19950;-71
2024/03/16 02:46:21;;;;;;;;;;;;;;;6.46;68.25;94756.69;4214173;28;20338;-69
2024/03/16 02:48:22;;;;;;;;;;;;;;;6.56;68.39;94756.75;4207818;28;20978;-70
2024/03/16 02:50:24;;;;;;;;;;;;;;;6.64;67.85;94758.66;4204232;28;19927;-70
2024/03/16 02:52:26;;;;;;;;;;;;;;;6.65;67.51;94768.94;4186485;28;20011;-69
2024/03/16 02:54:28;;;;;;;;;;;;;;;6.59;67.57;94766.88;4196814;28;19960;-69
2024/03/16 02:56:32;;;;;;;;;;;;;;;6.63;67.72;94772.66;4211298;28;20101;-71
2024/03/16 02:58:34;;;;;;;;;;;;;;;6.70;67.62;94776.34;4194518;28;20336;-69
2024/03/16 03:00:35;;;;;;;;;;;;;;;6.73;67.47;94773.47;4208740;28;19919;-70
2024/03/16 03:02:37;;;;;;;;;;;;;;;6.76;67.21;94770.63;4208227;28;19935;-72
2024/03/16 03:04:39;;;;;;;;;;;;;;;6.77;67.46;94774.84;4198258;28;19998;-71
2024/03/16 03:06:41;;;;;;;;;;;;;;;6.79;67.56;94772.94;4201218;28;19932;-72
2024/03/16 03:08:44;;;;;;;;;;;;;;;6.80;67.71;94774.59;4206131;28;20351;-70
2024/03/16 03:10:46;;;;;;;;;;;;;;;6.82;67.60;94775.28;4200341;28;20006;-70
2024/03/16 03:12:49;;;;;;;;;;;;;;;6.83;67.26;94770.91;4194607;28;19920;-70
2024/03/16 03:14:51;;;;;;;;;;;;;;;6.81;67.04;94765.81;4198793;28;19978;-70
2024/03/16 03:16:53;;;;;;;;;;;;;;;6.76;66.11;94768.00;4200461;28;20024;-70
2024/03/16 03:18:55;;;;;;;;;;;;;;;6.71;65.73;94768.41;4205715;28;19956;-69
2024/03/16 03:20:57;;;;;;;;;;;;;;;6.66;65.49;94772.38;4209467;28;20014;-70
2024/03/16 03:23:00;;;;;;;;;;;;;;;6.64;65.37;94771.66;4205595;28;20010;-70
2024/03/16 03:25:03;;;;;;;;;;;;;;;6.66;65.33;94767.97;4207534;28;19944;-69
2024/03/16 03:27:05;;;;;;;;;;;;;;;6.67;65.43;94776.63;4205176;28;19928;-71
2024/03/16 03:29:07;;;;;;;;;;;;;;;6.57;66.08;94777.41;4209342;28;19923;-70
2024/03/16 03:31:10;;;;;;;;;;;;;;;6.35;67.59;94778.44;4199549;28;20421;-72
2024/03/16 03:33:12;;;;;;;;;;;;;;;6.30;67.52;94778.03;4207134;28;19970;-71
2024/03/16 03:35:14;;;;;;;;;;;;;;;6.24;68.19;94772.50;4205219;28;19928;-71
2024/03/16 03:37:16;;;;;;;;;;;;;;;6.27;68.50;94773.06;4201542;28;19966;-71
2024/03/16 03:39:18;;;;;;;;;;;;;;;6.27;68.08;94782.66;4202375;28;19923;-71
2024/03/16 03:41:20;;;;;;;;;;;;;;;6.30;68.13;94777.16;4211485;28;19935;-69
2024/03/16 03:43:22;;;;;;;;;;;;;;;6.17;68.20;94776.56;4215582;28;19925;-71
2024/03/16 03:48:00;;;;;;;;;;;;;;;5.81;69.62;94782.13;4211980;28;20315;-71
2024/03/16 03:50:05;;;;;;;;;;;;;;;5.48;70.11;94786.53;4195492;28;19924;-70
2024/03/16 03:52:06;;;;;;;;;;;;;;;5.56;71.28;94788.50;4209093;28;19977;-70
2024/03/16 03:54:08;;;;;;;;;;;;;;;5.72;71.02;94782.88;4200110;28;19923;-70
2024/03/16 03:56:10;;;;;;;;;;;;;;;5.85;70.25;94785.28;4212602;28;19926;-70
2024/03/16 03:58:12;;;;;;;;;;;;;;;5.83;69.45;94785.41;4207454;28;19920;-70
2024/03/16 04:00:15;;;;;;;;;;;;;;;5.81;69.56;94786.47;4204602;28;20351;-68
2024/03/16 04:02:17;;;;;;;;;;;;;;;5.72;69.56;94791.50;4201183;28;19920;-71
2024/03/16 04:04:18;;;;;;;;;;;;;;;5.74;69.77;94787.00;4194375;28;20007;-71
2024/03/16 04:06:20;;;;;;;;;;;;;;;5.74;69.72;94783.56;4192485;28;20039;-71
2024/03/16 04:08:22;;;;;;;;;;;;;;;5.73;69.86;94784.53;4190469;28;19935;-71
2024/03/16 04:10:25;;;;;;;;;;;;;;;5.79;70.12;94784.03;4206754;28;19919;-69
2024/03/16 04:12:27;;;;;;;;;;;;;;;5.90;69.91;94783.13;4208275;28;19959;-71
2024/03/16 04:14:29;;;;;;;;;;;;;;;5.96;69.20;94790.44;4186146;28;19935;-72
2024/03/16 04:16:30;;;;;;;;;;;;;;;5.92;68.93;94797.66;4204409;28;20420;-68
2024/03/16 04:18:32;;;;;;;;;;;;;;;5.87;69.16;94797.22;4205759;28;20013;-71
2024/03/16 04:20:34;;;;;;;;;;;;;;;5.84;69.13;94787.06;4210400;28;19920;-72
2024/03/16 04:22:36;;;;;;;;;;;;;;;5.87;69.04;94791.16;4199348;28;19924;-73
2024/03/16 04:24:38;;;;;;;;;;;;;;;5.92;69.20;94794.22;4206190;28;19994;-71
2024/03/16 04:26:40;;;;;;;;;;;;;;;6.00;68.45;94796.19;4190613;28;20394;-70
2024/03/16 04:28:42;;;;;;;;;;;;;;;5.99;67.96;94803.19;4211281;28;20271;-70
2024/03/16 04:30:45;;;;;;;;;;;;;;;5.79;67.87;94804.81;4209161;28;19924;-71
2024/03/16 04:32:47;;;;;;;;;;;;;;;5.80;68.80;94805.63;4207724;28;19941;-72
2024/03/16 04:34:49;;;;;;;;;;;;;;;5.84;68.37;94809.63;4205592;28;19928;-70
2024/03/16 04:36:53;;;;;;;;;;;;;;;5.93;68.55;94795.84;4219023;28;20311;-70
2024/03/16 04:38:55;;;;;;;;;;;;;;;6.00;68.32;94804.84;4206898;28;19920;-69
2024/03/16 04:40:57;;;;;;;;;;;;;;;6.08;67.74;94807.59;4216267;28;19965;-69
2024/03/16 04:42:59;;;;;;;;;;;;;;;6.06;67.65;94812.09;4201100;28;19999;-72
2024/03/16 04:45:01;;;;;;;;;;;;;;;6.08;67.47;94812.81;4209913;28;20226;-72
2024/03/16 04:47:03;;;;;;;;;;;;;;;6.11;67.54;94811.75;4211459;28;19920;-73
2024/03/16 04:49:05;;;;;;;;;;;;;;;6.20;67.55;94812.75;4191937;28;19935;-71
2024/03/16 04:51:07;;;;;;;;;;;;;;;6.31;67.21;94815.25;4189641;28;19921;-71
2024/03/16 04:53:11;;;;;;;;;;;;;;;6.30;66.61;94811.00;4199699;28;19938;-71
2024/03/16 04:55:14;;;;;;;;;;;;;;;6.19;66.58;94811.91;4211401;28;19920;-72
2024/03/16 04:57:18;;;;;;;;;;;;;;;6.21;66.93;94814.38;4205050;28;20357;-71
2024/03/16 04:59:20;;;;;;;;;;;;;;;6.21;66.34;94817.81;4205092;28;20287;-70
2024/03/16 05:01:22;;;;;;;;;;;;;;;6.24;66.23;94814.09;4204748;28;19924;-72
2024/03/16 05:03:23;;;;;;;;;;;;;;;6.29;66.37;94809.34;4202386;28;20430;-71
2024/03/16 05:05:25;;;;;;;;;;;;;;;6.36;66.19;94808.69;4218949;28;20298;-70
2024/03/16 05:07:27;;;;;;;;;;;;;;;6.31;66.12;94810.88;4184626;28;19932;-69
2024/03/16 05:09:29;;;;;;;;;;;;;;;6.16;66.16;94817.38;4206988;28;20011;-72
2024/03/16 05:11:30;;;;;;;;;;;;;;;5.91;67.30;94815.97;4204087;28;20007;-70
2024/03/16 05:13:32;;;;;;;;;;;;;;;5.74;68.06;94819.97;4211446;28;20290;-72
2024/03/16 05:15:35;;;;;;;;;;;;;;;5.47;68.21;94815.25;4206278;28;20294;-70
2024/03/16 05:17:39;;;;;;;;;;;;;;;5.27;69.57;94830.69;4203183;28;19920;-71
2024/03/16 05:19:41;;;;;;;;;;;;;;;5.23;70.14;94818.91;4183397;28;19976;-70
2024/03/16 05:21:43;;;;;;;;;;;;;;;5.27;70.03;94815.09;4197515;28;20385;-71
2024/03/16 05:23:45;;;;;;;;;;;;;;;5.41;70.07;94813.16;4200824;28;20758;-72
2024/03/16 05:25:47;;;;;;;;;;;;;;;5.52;69.98;94813.91;4209331;28;20338;-70
2024/03/16 05:27:49;;;;;;;;;;;;;;;5.63;69.17;94820.84;4224053;28;20434;-70
2024/03/16 05:29:51;;;;;;;;;;;;;;;5.79;69.15;94815.22;4210759;28;19920;-71
2024/03/16 05:31:59;;;;;;;;;;;;;;;5.91;68.12;94808.16;4202789;28;19931;-71
2024/03/16 05:34:01;;;;;;;;;;;;;;;6.06;68.30;94822.50;4197215;28;20295;-72
2024/03/16 05:36:05;;;;;;;;;;;;;;;6.06;67.52;94814.72;4204405;28;20627;-70
2024/03/16 05:38:07;;;;;;;;;;;;;;;5.86;67.64;94812.94;4200776;28;19920;-68
2024/03/16 05:40:10;;;;;;;;;;;;;;;5.79;68.11;94817.81;4217163;28;20014;-69
2024/03/16 05:42:12;;;;;;;;;;;;;;;5.82;68.55;94824.53;4198762;28;20339;-69
2024/03/16 05:44:13;;;;;;;;;;;;;;;5.82;68.86;94819.34;4208081;28;20090;-70
2024/03/16 05:46:15;;;;;;;;;;;;;;;5.89;68.16;94812.66;4200743;28;19944;-69
2024/03/16 05:48:20;;;;;;;;;;;;;;;5.85;68.33;94816.47;4196700;28;19978;-71
2024/03/16 05:50:22;;;;;;;;;;;;;;;5.92;68.05;94815.03;4212858;28;19919;-72
2024/03/16 05:52:23;;;;;;;;;;;;;;;5.96;67.72;94819.06;4208606;28;19970;-73
2024/03/16 05:54:27;;;;;;;;;;;;;;;5.84;67.97;94817.44;4208936;28;20356;-70
2024/03/16 05:56:28;;;;;;;;;;;;;;;5.84;68.07;94823.44;4205895;28;19978;-70
2024/03/16 05:58:32;;;;;;;;;;;;;;;5.89;68.26;94816.13;4203806;28;20001;-71
2024/03/16 06:00:37;;;;;;;;;;;;;;;6.06;68.15;94822.50;4214054;28;20034;-72
2024/03/16 06:02:40;;;;;;;;;;;;;;;6.18;67.43;94810.28;4203350;28;20030;-71
2024/03/16 06:04:41;;;;;;;;;;;;;;;6.31;67.55;94817.84;4201664;28;19965;-72
2024/03/16 06:06:43;;;;;;;;;;;;;;;6.35;67.81;94821.84;4192748;28;20020;-71
2024/03/16 06:08:46;;;;;;;;;;;;;;;6.19;66.83;94817.09;4209530;28;20286;-71
2024/03/16 06:10:50;;;;;;;;;;;;;;;6.03;67.77;94825.38;4206535;28;20252;-70
2024/03/16 06:12:52;;;;;;;;;;;;;;;6.00;67.88;94830.84;4213105;28;19924;-72
2024/03/16 06:14:54;;;;;;;;;;;;;;;5.84;68.41;94833.84;4209515;28;19920;-70
2024/03/16 06:16:56;;;;;;;;;;;;;;;5.74;68.39;94832.94;4192384;28;20263;-72
2024/03/16 06:18:59;;;;;;;;;;;;;;;5.61;69.78;94838.31;4197255;28;20671;-72
2024/03/16 06:21:01;;;;;;;;;;;;;;;5.44;69.73;94841.47;4197786;28;20014;-72
2024/03/16 06:23:03;;;;;;;;;;;;;;;5.25;70.73;94842.16;4211930;28;19938;-72
2024/03/16 06:25:05;;;;;;;;;;;;;;;5.20;70.79;94847.69;4209820;28;20010;-71
2024/03/16 06:27:09;;;;;;;;;;;;;;;5.17;71.23;94852.34;4203802;28;20023;-72
2024/03/16 06:29:12;;;;;;;;;;;;;;;5.02;71.53;94846.59;4207158;28;20393;-72
2024/03/16 06:31:14;;;;;;;;;;;;;;;5.05;72.09;94852.34;4199519;28;19928;-72
2024/03/16 06:33:30;;;;;;;;;;;;;;;5.37;72.17;94850.72;4186126;28;20014;-72
2024/03/16 06:35:32;;;;;;;;;;;;;;;5.51;70.84;94846.06;4203506;28;19924;-72
2024/03/16 06:37:36;;;;;;;;;;;;;;;5.37;71.16;94843.75;4210563;28;19925;-72
2024/03/16 06:39:38;;;;;;;;;;;;;;;5.57;71.39;94836.13;4208038;28;20007;-70
2024/03/16 06:41:40;;;;;;;;;;;;;;;5.91;70.97;94836.75;4200577;28;19923;-70
2024/03/16 06:43:42;;;;;;;;;;;;;;;6.14;69.20;94830.50;4207865;28;20423;-70
2024/03/16 06:45:44;;;;;;;;;;;;;;;6.36;68.29;94828.69;4203691;28;20242;-71
2024/03/16 06:47:45;;;;;;;;;;;;;;;6.45;67.53;94827.91;4209521;28;19926;-71
2024/03/16 06:49:49;;;;;;;;;;;;;;;6.61;67.69;94824.84;4203049;28;19924;-69
2024/03/16 06:51:51;;;;;;;;;;;;;;;6.74;66.98;94827.19;4198276;28;19931;-70
2024/03/16 06:53:53;;;;;;;;;;;;;;;7.00;66.35;94830.16;4203576;28;19924;-72
2024/03/16 06:55:55;;;;;;;;;;;;;;;7.23;65.61;94828.13;4205101;28;19928;-72
2024/03/16 06:57:57;;;;;;;;;;;;;;;7.38;64.73;94831.97;4199921;28;20674;-71
2024/03/16 06:59:59;;;;;;;;;;;;;;;7.50;64.66;94830.06;4195437;28;19966;-71
2024/03/16 07:02:00;;;;;;;;;;;;;;;7.52;63.60;94835.97;4200275;28;19921;-72
2024/03/16 07:04:02;;;;;;;;;;;;;;;7.11;63.84;94834.41;4202127;28;19927;-71
2024/03/16 07:06:06;;;;;;;;;;;;;;;7.15;65.14;94838.41;4208309;28;20007;-72
2024/03/16 07:08:10;;;;;;;;;;;;;;;7.34;64.69;94840.22;4212403;28;20015;-72
2024/03/16 07:10:14;;;;;;;;;;;;;;;7.05;64.72;94843.56;4208106;28;19947;-71
2024/03/16 07:12:16;;;;;;;;;;;;;;;7.13;64.76;94842.91;4208754;28;19926;-71
2024/03/16 07:14:18;;;;;;;;;;;;;;;7.06;65.11;94841.81;4209421;28;20037;-71
2024/03/16 07:16:21;;;;;;;;;;;;;;;6.94;65.53;94849.72;4205249;28;20379;-70
2024/03/16 07:18:23;;;;;;;;;;;;;;;6.88;65.93;94850.28;4207089;28;19920;-70
2024/03/16 07:20:24;;;;;;;;;;;;;;;7.01;65.54;94847.41;4215142;28;19928;-70
2024/03/16 07:22:27;;;;;;;;;;;;;;;7.25;65.32;94846.22;4199920;28;19942;-70
2024/03/16 07:24:29;;;;;;;;;;;;;;;7.33;64.24;94855.00;4207120;28;20315;-71
2024/03/16 07:26:31;;;;;;;;;;;;;;;7.06;64.74;94852.25;4199638;28;19990;-70
2024/03/16 07:28:33;;;;;;;;;;;;;;;7.18;65.41;94844.19;4206160;28;19924;-70
2024/03/16 07:30:38;;;;;;;;;;;;;;;7.37;64.97;94845.97;4201841;28;20405;-73
2024/03/16 07:32:40;;;;;;;;;;;;;;;7.61;63.89;94841.31;4204301;28;19944;-72
2024/03/16 07:34:41;;;;;;;;;;;;;;;7.91;63.32;94843.75;4204807;28;20151;-71
2024/03/16 07:36:43;;;;;;;;;;;;;;;8.17;63.07;94838.78;4206143;28;19920;-70
2024/03/16 07:38:45;;;;;;;;;;;;;;;8.48;62.69;94836.00;4203455;28;19978;-70
2024/03/16 07:40:46;;;;;;;;;;;;;;;8.60;61.10;94844.44;4195819;28;19921;-72
2024/03/16 07:42:49;;;;;;;;;;;;;;;8.54;61.50;94843.25;4207986;28;20136;-71
2024/03/16 07:44:50;;;;;;;;;;;;;;;8.67;60.93;94847.31;4209688;28;19924;-72
2024/03/16 07:46:52;;;;;;;;;;;;;;;8.87;59.71;94846.28;4192533;28;19999;-72
2024/03/16 07:48:56;;;;;;;;;;;;;;;8.89;59.59;94844.34;4203774;28;19989;-74
2024/03/16 07:50:59;;;;;;;;;;;;;;;8.71;59.82;94846.91;4206769;28;20277;-69
2024/03/16 07:53:03;;;;;;;;;;;;;;;8.64;60.41;94847.59;4207532;28;19966;-73
2024/03/16 07:55:06;;;;;;;;;;;;;;;8.65;60.38;94842.25;4192400;28;19936;-70
2024/03/16 07:57:09;;;;;;;;;;;;;;;8.93;60.76;94844.88;4202736;28;19930;-71
2024/03/16 07:59:11;;;;;;;;;;;;;;;9.12;59.24;94838.69;4195590;28;19955;-72
2024/03/16 08:01:12;;;;;;;;;;;;;;;9.14;58.62;94836.75;4207429;28;20003;-71
2024/03/16 08:03:14;;;;;;;;;;;;;;;8.99;59.16;94836.44;4208683;28;19920;-72
2024/03/16 08:05:16;;;;;;;;;;;;;;;9.14;59.57;94842.00;4210991;28;19920;-72
2024/03/16 08:07:18;;;;;;;;;;;;;;;9.35;58.60;94834.69;4195439;28;19950;-72
2024/03/16 08:09:22;;;;;;;;;;;;;;;9.60;58.51;94832.34;4206037;28;19920;-71
2024/03/16 08:11:27;;;;;;;;;;;;;;;9.86;57.78;94831.56;4200848;28;19920;-73
2024/03/16 08:13:30;;;;;;;;;;;;;;;10.07;56.92;94824.22;4210264;28;19924;-72
2024/03/16 08:15:32;;;;;;;;;;;;;;;10.28;56.39;94825.66;4209720;28;19927;-73
2024/03/16 08:17:34;;;;;;;;;;;;;;;10.33;55.62;94826.06;4204771;28;19994;-71
2024/03/16 08:19:38;;;;;;;;;;;;;;;10.41;55.41;94824.31;4212234;28;20114;-72
2024/03/16 08:21:40;;;;;;;;;;;;;;;10.55;55.16;94828.13;4202324;28;20049;-69
2024/03/16 08:23:43;;;;;;;;;;;;;;;10.49;54.58;94820.09;4204131;28;20013;-71
2024/03/16 08:25:46;;;;;;;;;;;;;;;10.61;54.84;94819.66;4203118;28;19920;-71
2024/03/16 08:27:48;;;;;;;;;;;;;;;10.53;54.67;94818.81;4212126;28;19970;-70
2024/03/16 08:29:51;;;;;;;;;;;;;;;10.43;55.03;94818.91;4199121;28;20005;-73
2024/03/16 08:31:53;;;;;;;;;;;;;;;10.19;55.61;94814.31;4211067;28;19920;-73
2024/03/16 08:33:55;;;;;;;;;;;;;;;10.24;55.09;94815.50;4200810;28;19921;-74
2024/03/16 08:35:56;;;;;;;;;;;;;;;10.22;55.68;94816.63;4202279;28;19920;-72
2024/03/16 08:37:58;;;;;;;;;;;;;;;10.11;55.17;94809.84;4211085;28;21088;-72
2024/03/16 08:40:00;;;;;;;;;;;;;;;10.11;55.51;94814.25;4206676;28;20019;-71
2024/03/16 08:42:02;;;;;;;;;;;;;;;10.22;54.92;94808.78;4205615;28;19920;-70
2024/03/16 08:44:04;;;;;;;;;;;;;;;10.32;54.83;94811.31;4208273;28;19924;-73
2024/03/16 08:46:06;;;;;;;;;;;;;;;10.55;54.53;94812.41;4211748;28;20042;-72
2024/03/16 08:48:08;;;;;;;;;;;;;;;10.69;53.83;94804.94;4206090;28;19924;-71
2024/03/16 08:50:10;;;;;;;;;;;;;;;10.76;53.91;94811.22;4205126;28;20327;-72
2024/03/16 08:52:12;;;;;;;;;;;;;;;10.57;53.82;94802.59;4210405;28;19993;-73
2024/03/16 08:54:14;;;;;;;;;;;;;;;10.51;54.38;94805.03;4211453;28;19939;-72
2024/03/16 08:56:16;;;;;;;;;;;;;;;10.39;54.44;94805.31;4210224;28;19920;-72
2024/03/16 08:58:17;;;;;;;;;;;;;;;10.21;55.27;94797.47;4202665;28;19987;-72
2024/03/16 09:00:19;;;;;;;;;;;;;;;10.48;55.00;94792.25;4211353;28;19936;-71
2024/03/16 09:02:24;;;;;;;;;;;;;;;10.54;54.47;94794.22;4199240;28;19933;-72
2024/03/16 09:04:25;;;;;;;;;;;;;;;10.77;54.16;94795.31;4200129;28;19955;-73
2024/03/16 09:06:27;;;;;;;;;;;;;;;10.84;55.31;94792.88;4210292;28;19971;-73
2024/03/16 09:08:30;;;;;;;;;;;;;;;11.14;55.00;94791.53;4197602;28;19920;-72
2024/03/16 09:10:32;;;;;;;;;;;;;;;11.14;52.86;94798.56;4214393;28;20042;-73
2024/03/16 09:12:34;;;;;;;;;;;;;;;10.97;52.91;94793.28;4207630;28;19920;-71
2024/03/16 09:14:37;;;;;;;;;;;;;;;10.74;53.26;94790.41;4211313;28;20319;-74
2024/03/16 09:16:41;;;;;;;;;;;;;;;10.63;53.27;94785.47;4207258;28;19942;-73
2024/03/16 09:18:44;;;;;;;;;;;;;;;10.85;53.56;94787.50;4205033;28;19924;-70
2024/03/16 09:20:47;;;;;;;;;;;;;;;11.05;52.97;94788.03;4212048;28;19920;-73
2024/03/16 09:22:52;;;;;;;;;;;;;;;11.22;52.32;94783.66;4206790;28;20014;-73
2024/03/16 09:24:53;;;;;;;;;;;;;;;11.54;52.41;94782.06;4204920;28;20014;-73
2024/03/16 09:26:55;;;;;;;;;;;;;;;11.95;52.03;94781.28;4211591;28;20522;-74
2024/03/16 09:28:57;;;;;;;;;;;;;;;11.78;49.90;94783.88;4194961;28;19939;-74
2024/03/16 09:30:58;;;;;;;;;;;;;;;11.67;50.43;94781.59;4188609;28;19992;-74
2024/03/16 09:33:00;;;;;;;;;;;;;;;11.73;50.36;94780.13;4209751;28;19924;-72
2024/03/16 09:35:06;;;;;;;;;;;;;;;11.73;50.21;94780.13;4209716;28;20427;-72
2024/03/16 09:37:07;;;;;;;;;;;;;;;11.59;50.40;94779.78;4207280;28;20007;-71
2024/03/16 09:39:10;;;;;;;;;;;;;;;11.60;50.53;94776.19;4202342;28;20458;-69
2024/03/16 09:41:15;;;;;;;;;;;;;;;11.80;50.62;94775.84;4213420;28;20003;-71
2024/03/16 09:43:17;;;;;;;;;;;;;;;12.12;49.29;94774.22;4211992;28;20007;-72
2024/03/16 09:45:18;;;;;;;;;;;;;;;12.03;48.87;94770.78;4185812;28;19928;-70
2024/03/16 09:47:23;;;;;;;;;;;;;;;12.14;49.50;94767.00;4198171;28;19931;-72
2024/03/16 09:49:24;;;;;;;;;;;;;;;12.47;49.31;94767.72;4182604;28;19994;-72
2024/03/16 09:51:25;;;;;;;;;;;;;;;12.02;48.59;94764.72;4178626;28;19970;-72
2024/03/16 09:53:28;;;;;;;;;;;;;;;11.98;48.83;94779.16;4191065;28;19920;-71
2024/03/16 09:55:30;;;;;;;;;;;;;;;12.17;49.22;94770.09;4175785;28;19978;-71
2024/03/16 09:57:33;;;;;;;;;;;;;;;12.60;48.98;94769.81;4189951;28;20114;-74
2024/03/16 09:59:34;;;;;;;;;;;;;;;12.99;48.12;94763.75;4174213;28;19978;-71
2024/03/16 10:01:35;;;;;;;;;;;;;;;13.16;46.82;94765.28;4191659;28;20029;-72
2024/03/16 10:03:36;;;;;;;;;;;;;;;13.29;46.62;94756.88;4184129;28;19950;-74
2024/03/16 10:05:36;;;;;;;;;;;;;;;13.14;46.49;94769.09;4169030;28;20015;-73
2024/03/16 10:07:37;;;;;;;;;;;;;;;12.85;46.72;94774.00;4186208;28;19974;-72
2024/03/16 10:09:56;;;;;;;;;;;;;;;12.45;47.13;94765.28;4188189;28;19962;-73
2024/03/16 10:12:17;;;;;;;;;;;;;;;12.17;48.61;94769.28;4188825;28;19954;-74
2024/03/16 10:14:17;;;;;;;;;;;;;;;12.39;48.31;94763.34;4185846;28;19978;-74
2024/03/16 10:16:22;;;;;;;;;;;;;;;12.41;47.92;94757.88;4191466;28;19993;-72
2024/03/16 10:18:23;;;;;;;;;;;;;;;12.35;47.86;94762.03;4186930;28;19931;-74
2024/03/16 10:20:27;;;;;;;;;;;;;;;12.47;47.84;94757.22;4163823;28;19968;-71
2024/03/16 10:22:27;;;;;;;;;;;;;;;12.72;47.46;94762.41;4175834;28;19944;-72
2024/03/16 10:24:28;;;;;;;;;;;;;;;12.72;47.20;94755.34;4189453;28;19920;-71
2024/03/16 10:26:32;;;;;;;;;;;;;;;12.90;47.29;94752.44;4182668;28;20240;-70
2024/03/16 10:28:33;;;;;;;;;;;;;;;13.17;47.17;94760.88;4184017;28;20184;-72
2024/03/16 10:30:34;;;;;;;;;;;;;;;13.35;46.18;94750.91;4184299;28;20401;-71
2024/03/16 10:32:37;;;;;;;;;;;;;;;13.33;46.06;94755.53;4173780;28;19925;-73
2024/03/16 10:34:37;;;;;;;;;;;;;;;13.06;46.70;94762.09;4186802;28;20335;-71
2024/03/16 10:36:38;;;;;;;;;;;;;;;13.26;45.56;94757.19;4175328;28;19921;-72
2024/03/16 10:38:41;;;;;;;;;;;;;;;13.40;45.64;94748.59;4171486;28;20095;-72
2024/03/16 10:40:43;;;;;;;;;;;;;;;13.45;44.81;94745.44;4182378;28;20597;-73
2024/03/16 10:42:44;;;;;;;;;;;;;;;13.58;44.84;94747.47;4195995;28;19947;-72
2024/03/16 10:44:46;;;;;;;;;;;;;;;13.44;45.20;94744.63;4188209;28;20282;-71
2024/03/16 10:46:46;;;;;;;;;;;;;;;13.44;45.35;94744.63;4184733;28;19924;-71